sensor_id;sensor_type;location;lat;lon;timestamp;P1;durP1;ratioP1;P2;durP2;ratioP2
36403;SDS011;22437;55.646;37.518;2022-08-21T00:02:12;60.17;;;39.25;;
36403;SDS011;22437;55.646;37.518;2022-08-21T00:04:44;57.08;;;38.80;;
36403;SDS011;22437;55.646;37.518;2022-08-21T00:07:24;63.53;;;41.30;;
36403;SDS011;22437;55.646;37.518;2022-08-21T00:09:54;64.20;;;41.58;;
36403;SDS011;22437;55.646;37.518;2022-08-21T00:12:23;63.38;;;42.72;;
36403;SDS011;22437;55.646;37.518;2022-08-21T00:14:54;64.05;;;41.80;;
36403;SDS011;22437;55.646;37.518;2022-08-21T00:17:25;67.07;;;42.53;;
36403;SDS011;22437;55.646;37.518;2022-08-21T00:19:55;65.60;;;44.05;;
36403;SDS011;22437;55.646;37.518;2022-08-21T00:22:24;68.33;;;47.00;;
36403;SDS011;22437;55.646;37.518;2022-08-21T00:24:54;67.45;;;45.47;;
36403;SDS011;22437;55.646;37.518;2022-08-21T00:27:23;71.28;;;43.53;;
36403;SDS011;22437;55.646;37.518;2022-08-21T00:29:53;71.75;;;45.28;;
36403;SDS011;22437;55.646;37.518;2022-08-21T00:32:24;66.85;;;45.05;;
36403;SDS011;22437;55.646;37.518;2022-08-21T00:34:56;67.53;;;46.75;;
36403;SDS011;22437;55.646;37.518;2022-08-21T00:37:25;78.10;;;45.97;;
36403;SDS011;22437;55.646;37.518;2022-08-21T00:39:57;68.65;;;46.22;;
36403;SDS011;22437;55.646;37.518;2022-08-21T00:42:28;70.57;;;46.83;;
36403;SDS011;22437;55.646;37.518;2022-08-21T00:44:58;67.97;;;45.28;;
36403;SDS011;22437;55.646;37.518;2022-08-21T00:47:29;64.03;;;44.92;;
36403;SDS011;22437;55.646;37.518;2022-08-21T00:50:00;69.78;;;46.35;;
36403;SDS011;22437;55.646;37.518;2022-08-21T00:55:01;72.03;;;45.13;;
36403;SDS011;22437;55.646;37.518;2022-08-21T00:57:36;70.63;;;45.30;;
36403;SDS011;22437;55.646;37.518;2022-08-21T01:00:11;70.35;;;46.00;;
36403;SDS011;22437;55.646;37.518;2022-08-21T01:02:44;64.45;;;43.85;;
36403;SDS011;22437;55.646;37.518;2022-08-21T01:05:16;63.17;;;45.55;;
36403;SDS011;22437;55.646;37.518;2022-08-21T01:07:45;73.50;;;45.92;;
36403;SDS011;22437;55.646;37.518;2022-08-21T01:10:15;68.63;;;45.50;;
36403;SDS011;22437;55.646;37.518;2022-08-21T01:12:50;70.45;;;45.25;;
36403;SDS011;22437;55.646;37.518;2022-08-21T01:15:23;69.78;;;46.50;;
36403;SDS011;22437;55.646;37.518;2022-08-21T01:17:56;70.22;;;46.80;;
36403;SDS011;22437;55.646;37.518;2022-08-21T01:20:27;73.30;;;46.13;;
36403;SDS011;22437;55.646;37.518;2022-08-21T01:23:01;69.97;;;46.42;;
36403;SDS011;22437;55.646;37.518;2022-08-21T01:25:32;72.05;;;48.03;;
36403;SDS011;22437;55.646;37.518;2022-08-21T01:28:04;74.20;;;46.13;;
36403;SDS011;22437;55.646;37.518;2022-08-21T01:30:39;70.03;;;46.17;;
36403;SDS011;22437;55.646;37.518;2022-08-21T01:33:10;74.07;;;47.05;;
36403;SDS011;22437;55.646;37.518;2022-08-21T01:35:40;70.15;;;46.03;;
36403;SDS011;22437;55.646;37.518;2022-08-21T01:38:12;72.85;;;45.90;;
36403;SDS011;22437;55.646;37.518;2022-08-21T01:40:42;70.88;;;44.80;;
36403;SDS011;22437;55.646;37.518;2022-08-21T01:43:11;66.60;;;44.63;;
36403;SDS011;22437;55.646;37.518;2022-08-21T01:45:41;69.13;;;44.53;;
36403;SDS011;22437;55.646;37.518;2022-08-21T01:48:10;72.32;;;45.42;;
36403;SDS011;22437;55.646;37.518;2022-08-21T01:50:40;65.35;;;43.28;;
36403;SDS011;22437;55.646;37.518;2022-08-21T01:53:09;64.78;;;44.78;;
36403;SDS011;22437;55.646;37.518;2022-08-21T01:55:42;71.38;;;44.40;;
36403;SDS011;22437;55.646;37.518;2022-08-21T01:58:14;70.82;;;44.05;;
36403;SDS011;22437;55.646;37.518;2022-08-21T02:00:43;62.85;;;41.80;;
36403;SDS011;22437;55.646;37.518;2022-08-21T02:03:19;69.35;;;41.83;;
36403;SDS011;22437;55.646;37.518;2022-08-21T02:06:02;65.60;;;40.55;;
36403;SDS011;22437;55.646;37.518;2022-08-21T02:08:33;64.75;;;41.70;;
36403;SDS011;22437;55.646;37.518;2022-08-21T02:11:03;60.72;;;39.95;;
36403;SDS011;22437;55.646;37.518;2022-08-21T02:13:32;57.90;;;38.28;;
36403;SDS011;22437;55.646;37.518;2022-08-21T02:16:02;62.47;;;39.35;;
36403;SDS011;22437;55.646;37.518;2022-08-21T02:18:32;58.30;;;37.85;;
36403;SDS011;22437;55.646;37.518;2022-08-21T02:21:02;61.35;;;38.38;;
36403;SDS011;22437;55.646;37.518;2022-08-21T02:23:34;64.50;;;37.58;;
36403;SDS011;22437;55.646;37.518;2022-08-21T02:26:04;58.60;;;38.30;;
36403;SDS011;22437;55.646;37.518;2022-08-21T02:28:36;59.97;;;37.97;;
36403;SDS011;22437;55.646;37.518;2022-08-21T02:31:06;59.65;;;38.05;;
36403;SDS011;22437;55.646;37.518;2022-08-21T02:33:35;65.43;;;38.55;;
36403;SDS011;22437;55.646;37.518;2022-08-21T02:36:06;55.63;;;38.27;;
36403;SDS011;22437;55.646;37.518;2022-08-21T02:38:39;58.95;;;37.83;;
36403;SDS011;22437;55.646;37.518;2022-08-21T02:41:11;66.85;;;36.88;;
36403;SDS011;22437;55.646;37.518;2022-08-21T02:43:41;57.28;;;36.83;;
36403;SDS011;22437;55.646;37.518;2022-08-21T02:46:12;55.92;;;37.67;;
36403;SDS011;22437;55.646;37.518;2022-08-21T02:48:43;60.08;;;36.10;;
36403;SDS011;22437;55.646;37.518;2022-08-21T02:51:15;58.35;;;36.03;;
36403;SDS011;22437;55.646;37.518;2022-08-21T02:53:48;68.00;;;36.53;;
36403;SDS011;22437;55.646;37.518;2022-08-21T03:01:21;59.45;;;36.10;;
36403;SDS011;22437;55.646;37.518;2022-08-21T03:03:52;52.95;;;33.65;;
36403;SDS011;22437;55.646;37.518;2022-08-21T03:06:24;56.88;;;34.88;;
36403;SDS011;22437;55.646;37.518;2022-08-21T03:08:55;56.35;;;34.47;;
36403;SDS011;22437;55.646;37.518;2022-08-21T03:11:24;57.80;;;34.53;;
36403;SDS011;22437;55.646;37.518;2022-08-21T03:13:54;56.55;;;35.25;;
36403;SDS011;22437;55.646;37.518;2022-08-21T03:16:25;49.60;;;33.38;;
36403;SDS011;22437;55.646;37.518;2022-08-21T03:19:00;47.80;;;33.30;;
36403;SDS011;22437;55.646;37.518;2022-08-21T03:21:30;53.83;;;33.80;;
36403;SDS011;22437;55.646;37.518;2022-08-21T03:24:02;54.53;;;34.45;;
36403;SDS011;22437;55.646;37.518;2022-08-21T03:26:33;49.50;;;32.53;;
36403;SDS011;22437;55.646;37.518;2022-08-21T03:29:06;60.10;;;33.13;;
36403;SDS011;22437;55.646;37.518;2022-08-21T03:31:37;48.53;;;32.70;;
36403;SDS011;22437;55.646;37.518;2022-08-21T03:34:07;52.63;;;33.07;;
36403;SDS011;22437;55.646;37.518;2022-08-21T03:36:36;48.63;;;30.98;;
36403;SDS011;22437;55.646;37.518;2022-08-21T03:39:07;49.67;;;30.25;;
36403;SDS011;22437;55.646;37.518;2022-08-21T03:41:36;48.97;;;31.93;;
36403;SDS011;22437;55.646;37.518;2022-08-21T03:44:06;44.95;;;30.60;;
36403;SDS011;22437;55.646;37.518;2022-08-21T03:46:36;54.22;;;30.30;;
36403;SDS011;22437;55.646;37.518;2022-08-21T03:49:07;51.00;;;29.17;;
36403;SDS011;22437;55.646;37.518;2022-08-21T03:51:39;48.17;;;29.63;;
36403;SDS011;22437;55.646;37.518;2022-08-21T03:54:11;48.58;;;31.05;;
36403;SDS011;22437;55.646;37.518;2022-08-21T03:56:41;45.70;;;30.77;;
36403;SDS011;22437;55.646;37.518;2022-08-21T03:59:10;48.53;;;30.65;;
36403;SDS011;22437;55.646;37.518;2022-08-21T04:01:50;45.88;;;28.13;;
36403;SDS011;22437;55.646;37.518;2022-08-21T04:04:20;43.05;;;29.52;;
36403;SDS011;22437;55.646;37.518;2022-08-21T04:06:50;46.33;;;31.10;;
36403;SDS011;22437;55.646;37.518;2022-08-21T04:09:22;45.80;;;30.52;;
36403;SDS011;22437;55.646;37.518;2022-08-21T04:11:51;53.00;;;30.73;;
36403;SDS011;22437;55.646;37.518;2022-08-21T04:14:21;44.67;;;29.60;;
36403;SDS011;22437;55.646;37.518;2022-08-21T04:16:51;42.78;;;29.05;;
36403;SDS011;22437;55.646;37.518;2022-08-21T04:19:21;50.28;;;29.75;;
36403;SDS011;22437;55.646;37.518;2022-08-21T04:21:52;49.15;;;29.65;;
36403;SDS011;22437;55.646;37.518;2022-08-21T04:24:24;45.83;;;29.77;;
36403;SDS011;22437;55.646;37.518;2022-08-21T04:26:57;45.67;;;29.30;;
36403;SDS011;22437;55.646;37.518;2022-08-21T04:29:26;47.05;;;30.55;;
36403;SDS011;22437;55.646;37.518;2022-08-21T04:31:56;49.85;;;31.02;;
36403;SDS011;22437;55.646;37.518;2022-08-21T04:34:25;46.83;;;30.58;;
36403;SDS011;22437;55.646;37.518;2022-08-21T04:36:55;44.50;;;30.98;;
36403;SDS011;22437;55.646;37.518;2022-08-21T04:39:26;44.78;;;31.67;;
36403;SDS011;22437;55.646;37.518;2022-08-21T04:41:55;53.88;;;34.03;;
36403;SDS011;22437;55.646;37.518;2022-08-21T04:44:24;47.13;;;32.45;;
36403;SDS011;22437;55.646;37.518;2022-08-21T04:46:54;50.22;;;33.30;;
36403;SDS011;22437;55.646;37.518;2022-08-21T04:49:24;48.65;;;32.58;;
36403;SDS011;22437;55.646;37.518;2022-08-21T04:51:53;48.17;;;33.13;;
36403;SDS011;22437;55.646;37.518;2022-08-21T04:54:23;52.38;;;33.78;;
36403;SDS011;22437;55.646;37.518;2022-08-21T04:56:55;56.72;;;34.55;;
36403;SDS011;22437;55.646;37.518;2022-08-21T04:59:27;50.33;;;34.50;;
36403;SDS011;22437;55.646;37.518;2022-08-21T05:02:00;52.92;;;35.45;;
36403;SDS011;22437;55.646;37.518;2022-08-21T05:04:31;53.13;;;34.97;;
36403;SDS011;22437;55.646;37.518;2022-08-21T05:07:05;53.60;;;36.20;;
36403;SDS011;22437;55.646;37.518;2022-08-21T05:09:42;57.30;;;35.63;;
36403;SDS011;22437;55.646;37.518;2022-08-21T05:12:11;53.00;;;35.22;;
36403;SDS011;22437;55.646;37.518;2022-08-21T05:14:42;56.33;;;36.15;;
36403;SDS011;22437;55.646;37.518;2022-08-21T05:17:11;54.20;;;36.35;;
36403;SDS011;22437;55.646;37.518;2022-08-21T05:19:41;56.97;;;35.95;;
36403;SDS011;22437;55.646;37.518;2022-08-21T05:22:11;53.50;;;37.00;;
36403;SDS011;22437;55.646;37.518;2022-08-21T05:24:50;58.25;;;37.30;;
36403;SDS011;22437;55.646;37.518;2022-08-21T05:27:26;52.92;;;38.00;;
36403;SDS011;22437;55.646;37.518;2022-08-21T05:29:58;61.47;;;37.67;;
36403;SDS011;22437;55.646;37.518;2022-08-21T05:32:30;56.70;;;36.40;;
36403;SDS011;22437;55.646;37.518;2022-08-21T05:35:00;59.22;;;37.03;;
36403;SDS011;22437;55.646;37.518;2022-08-21T05:37:31;59.08;;;39.00;;
36403;SDS011;22437;55.646;37.518;2022-08-21T05:40:03;57.33;;;38.63;;
36403;SDS011;22437;55.646;37.518;2022-08-21T05:42:52;59.45;;;38.88;;
36403;SDS011;22437;55.646;37.518;2022-08-21T05:45:23;57.47;;;38.47;;
36403;SDS011;22437;55.646;37.518;2022-08-21T05:48:10;59.55;;;38.90;;
36403;SDS011;22437;55.646;37.518;2022-08-21T05:50:45;58.97;;;36.92;;
36403;SDS011;22437;55.646;37.518;2022-08-21T05:53:22;59.90;;;37.42;;
36403;SDS011;22437;55.646;37.518;2022-08-21T05:55:55;47.65;;;34.65;;
36403;SDS011;22437;55.646;37.518;2022-08-21T05:58:24;49.17;;;35.22;;
36403;SDS011;22437;55.646;37.518;2022-08-21T06:00:55;54.00;;;37.03;;
36403;SDS011;22437;55.646;37.518;2022-08-21T06:03:26;60.45;;;36.15;;
36403;SDS011;22437;55.646;37.518;2022-08-21T06:05:58;51.13;;;33.25;;
36403;SDS011;22437;55.646;37.518;2022-08-21T06:08:29;50.33;;;32.35;;
36403;SDS011;22437;55.646;37.518;2022-08-21T06:11:04;47.97;;;32.28;;
36403;SDS011;22437;55.646;37.518;2022-08-21T06:13:35;44.92;;;31.48;;
36403;SDS011;22437;55.646;37.518;2022-08-21T06:18:37;41.73;;;30.43;;
36403;SDS011;22437;55.646;37.518;2022-08-21T06:21:08;45.38;;;29.48;;
36403;SDS011;22437;55.646;37.518;2022-08-21T06:23:41;44.17;;;29.95;;
36403;SDS011;22437;55.646;37.518;2022-08-21T06:26:14;50.88;;;31.33;;
36403;SDS011;22437;55.646;37.518;2022-08-21T06:28:43;47.58;;;30.63;;
36403;SDS011;22437;55.646;37.518;2022-08-21T06:31:15;43.25;;;29.48;;
36403;SDS011;22437;55.646;37.518;2022-08-21T06:33:47;51.00;;;31.00;;
36403;SDS011;22437;55.646;37.518;2022-08-21T06:36:17;40.90;;;28.80;;
36403;SDS011;22437;55.646;37.518;2022-08-21T06:38:47;47.53;;;29.10;;
36403;SDS011;22437;55.646;37.518;2022-08-21T06:41:20;39.47;;;27.90;;
36403;SDS011;22437;55.646;37.518;2022-08-21T06:43:54;42.33;;;28.30;;
36403;SDS011;22437;55.646;37.518;2022-08-21T06:46:25;46.47;;;26.52;;
36403;SDS011;22437;55.646;37.518;2022-08-21T06:48:56;45.88;;;28.05;;
36403;SDS011;22437;55.646;37.518;2022-08-21T06:51:32;44.47;;;28.35;;
36403;SDS011;22437;55.646;37.518;2022-08-21T06:54:01;42.95;;;26.92;;
36403;SDS011;22437;55.646;37.518;2022-08-21T06:56:38;41.17;;;27.65;;
36403;SDS011;22437;55.646;37.518;2022-08-21T06:59:08;41.80;;;25.98;;
36403;SDS011;22437;55.646;37.518;2022-08-21T07:01:43;39.05;;;24.83;;
36403;SDS011;22437;55.646;37.518;2022-08-21T07:04:13;33.83;;;25.05;;
36403;SDS011;22437;55.646;37.518;2022-08-21T07:06:43;37.45;;;26.45;;
36403;SDS011;22437;55.646;37.518;2022-08-21T07:09:13;36.33;;;26.15;;
36403;SDS011;22437;55.646;37.518;2022-08-21T07:11:48;40.00;;;25.73;;
36403;SDS011;22437;55.646;37.518;2022-08-21T07:14:22;40.55;;;26.17;;
36403;SDS011;22437;55.646;37.518;2022-08-21T07:16:53;42.03;;;27.83;;
36403;SDS011;22437;55.646;37.518;2022-08-21T07:19:22;38.85;;;27.45;;
36403;SDS011;22437;55.646;37.518;2022-08-21T07:21:52;39.22;;;28.60;;
36403;SDS011;22437;55.646;37.518;2022-08-21T07:24:25;50.00;;;29.27;;
36403;SDS011;22437;55.646;37.518;2022-08-21T07:26:57;40.05;;;28.88;;
36403;SDS011;22437;55.646;37.518;2022-08-21T07:29:27;41.40;;;28.60;;
36403;SDS011;22437;55.646;37.518;2022-08-21T07:31:56;43.63;;;27.65;;
36403;SDS011;22437;55.646;37.518;2022-08-21T07:34:30;36.72;;;26.45;;
36403;SDS011;22437;55.646;37.518;2022-08-21T07:37:00;39.20;;;25.55;;
36403;SDS011;22437;55.646;37.518;2022-08-21T07:39:36;34.50;;;25.80;;
36403;SDS011;22437;55.646;37.518;2022-08-21T07:42:07;38.22;;;25.10;;
36403;SDS011;22437;55.646;37.518;2022-08-21T07:44:37;37.20;;;25.75;;
36403;SDS011;22437;55.646;37.518;2022-08-21T07:47:07;36.20;;;25.63;;
36403;SDS011;22437;55.646;37.518;2022-08-21T07:49:37;38.50;;;25.75;;
36403;SDS011;22437;55.646;37.518;2022-08-21T07:52:07;34.05;;;24.25;;
36403;SDS011;22437;55.646;37.518;2022-08-21T07:54:38;34.88;;;24.77;;
36403;SDS011;22437;55.646;37.518;2022-08-21T07:57:09;33.17;;;24.45;;
36403;SDS011;22437;55.646;37.518;2022-08-21T07:59:38;35.22;;;24.42;;
36403;SDS011;22437;55.646;37.518;2022-08-21T08:02:09;38.40;;;24.77;;
36403;SDS011;22437;55.646;37.518;2022-08-21T08:04:39;35.00;;;24.00;;
36403;SDS011;22437;55.646;37.518;2022-08-21T08:07:17;40.67;;;25.85;;
36403;SDS011;22437;55.646;37.518;2022-08-21T08:09:48;31.23;;;24.27;;
36403;SDS011;22437;55.646;37.518;2022-08-21T08:12:22;31.73;;;23.43;;
36403;SDS011;22437;55.646;37.518;2022-08-21T08:14:56;34.00;;;23.30;;
36403;SDS011;22437;55.646;37.518;2022-08-21T08:17:26;32.08;;;22.58;;
36403;SDS011;22437;55.646;37.518;2022-08-21T08:20:04;35.03;;;23.73;;
36403;SDS011;22437;55.646;37.518;2022-08-21T08:22:35;29.90;;;21.58;;
36403;SDS011;22437;55.646;37.518;2022-08-21T08:25:08;28.52;;;22.30;;
36403;SDS011;22437;55.646;37.518;2022-08-21T08:27:41;29.77;;;20.30;;
36403;SDS011;22437;55.646;37.518;2022-08-21T08:30:11;36.05;;;21.27;;
36403;SDS011;22437;55.646;37.518;2022-08-21T08:32:47;29.02;;;21.13;;
36403;SDS011;22437;55.646;37.518;2022-08-21T08:35:19;27.13;;;21.35;;
36403;SDS011;22437;55.646;37.518;2022-08-21T08:37:52;35.92;;;27.25;;
36403;SDS011;22437;55.646;37.518;2022-08-21T08:40:25;38.03;;;24.17;;
36403;SDS011;22437;55.646;37.518;2022-08-21T08:43:06;34.75;;;24.25;;
36403;SDS011;22437;55.646;37.518;2022-08-21T08:45:42;33.80;;;22.75;;
36403;SDS011;22437;55.646;37.518;2022-08-21T08:48:31;35.47;;;24.70;;
36403;SDS011;22437;55.646;37.518;2022-08-21T08:51:21;37.92;;;23.10;;
36403;SDS011;22437;55.646;37.518;2022-08-21T08:53:58;31.92;;;21.27;;
36403;SDS011;22437;55.646;37.518;2022-08-21T08:56:35;30.83;;;20.52;;
36403;SDS011;22437;55.646;37.518;2022-08-21T08:59:12;29.42;;;20.88;;
36403;SDS011;22437;55.646;37.518;2022-08-21T09:01:48;27.70;;;19.92;;
36403;SDS011;22437;55.646;37.518;2022-08-21T09:04:22;26.40;;;19.00;;
36403;SDS011;22437;55.646;37.518;2022-08-21T09:06:59;37.00;;;20.17;;
36403;SDS011;22437;55.646;37.518;2022-08-21T09:09:41;28.48;;;20.42;;
36403;SDS011;22437;55.646;37.518;2022-08-21T09:12:28;26.23;;;19.02;;
36403;SDS011;22437;55.646;37.518;2022-08-21T09:15:12;28.25;;;18.85;;
36403;SDS011;22437;55.646;37.518;2022-08-21T09:17:54;30.27;;;18.90;;
36403;SDS011;22437;55.646;37.518;2022-08-21T09:20:41;29.73;;;19.23;;
36403;SDS011;22437;55.646;37.518;2022-08-21T09:23:28;26.92;;;16.90;;
36403;SDS011;22437;55.646;37.518;2022-08-21T09:26:07;25.00;;;16.50;;
36403;SDS011;22437;55.646;37.518;2022-08-21T09:28:41;27.58;;;15.85;;
36403;SDS011;22437;55.646;37.518;2022-08-21T09:31:21;23.73;;;15.73;;
36403;SDS011;22437;55.646;37.518;2022-08-21T09:33:57;25.35;;;14.40;;
36403;SDS011;22437;55.646;37.518;2022-08-21T09:36:31;21.83;;;15.05;;
36403;SDS011;22437;55.646;37.518;2022-08-21T09:39:07;21.75;;;15.30;;
36403;SDS011;22437;55.646;37.518;2022-08-21T09:41:38;24.58;;;15.80;;
36403;SDS011;22437;55.646;37.518;2022-08-21T09:44:09;26.42;;;14.88;;
36403;SDS011;22437;55.646;37.518;2022-08-21T09:46:49;23.73;;;13.73;;
36403;SDS011;22437;55.646;37.518;2022-08-21T09:52:14;26.20;;;14.85;;
36403;SDS011;22437;55.646;37.518;2022-08-21T09:54:48;21.88;;;13.43;;
36403;SDS011;22437;55.646;37.518;2022-08-21T09:57:22;24.55;;;13.45;;
36403;SDS011;22437;55.646;37.518;2022-08-21T10:00:19;22.05;;;12.25;;
36403;SDS011;22437;55.646;37.518;2022-08-21T10:05:54;22.70;;;13.02;;
36403;SDS011;22437;55.646;37.518;2022-08-21T10:08:36;18.30;;;11.77;;
36403;SDS011;22437;55.646;37.518;2022-08-21T10:11:10;19.88;;;11.35;;
36403;SDS011;22437;55.646;37.518;2022-08-21T10:13:45;16.92;;;10.15;;
36403;SDS011;22437;55.646;37.518;2022-08-21T10:16:28;11.88;;;9.02;;
36403;SDS011;22437;55.646;37.518;2022-08-21T10:19:18;15.80;;;8.90;;
36403;SDS011;22437;55.646;37.518;2022-08-21T10:21:58;12.85;;;8.38;;
36403;SDS011;22437;55.646;37.518;2022-08-21T10:24:38;12.57;;;7.05;;
36403;SDS011;22437;55.646;37.518;2022-08-21T10:27:20;11.52;;;6.43;;
36403;SDS011;22437;55.646;37.518;2022-08-21T10:29:57;18.33;;;5.95;;
36403;SDS011;22437;55.646;37.518;2022-08-21T10:32:38;12.68;;;6.18;;
36403;SDS011;22437;55.646;37.518;2022-08-21T10:35:28;14.70;;;5.80;;
36403;SDS011;22437;55.646;37.518;2022-08-21T10:38:16;13.70;;;5.35;;
36403;SDS011;22437;55.646;37.518;2022-08-21T10:41:32;10.32;;;4.95;;
36403;SDS011;22437;55.646;37.518;2022-08-21T10:44:20;9.93;;;4.88;;
36403;SDS011;22437;55.646;37.518;2022-08-21T10:47:03;13.95;;;6.20;;
36403;SDS011;22437;55.646;37.518;2022-08-21T10:49:42;11.30;;;5.50;;
36403;SDS011;22437;55.646;37.518;2022-08-21T10:52:40;11.70;;;6.35;;
36403;SDS011;22437;55.646;37.518;2022-08-21T10:55:21;14.68;;;5.07;;
36403;SDS011;22437;55.646;37.518;2022-08-21T10:58:01;8.80;;;4.18;;
36403;SDS011;22437;55.646;37.518;2022-08-21T11:00:49;9.98;;;4.80;;
36403;SDS011;22437;55.646;37.518;2022-08-21T11:03:24;11.93;;;4.10;;
36403;SDS011;22437;55.646;37.518;2022-08-21T11:06:01;9.65;;;4.28;;
36403;SDS011;22437;55.646;37.518;2022-08-21T11:08:42;7.57;;;3.63;;
36403;SDS011;22437;55.646;37.518;2022-08-21T11:11:15;8.93;;;3.72;;
36403;SDS011;22437;55.646;37.518;2022-08-21T11:13:54;8.55;;;3.70;;
36403;SDS011;22437;55.646;37.518;2022-08-21T11:16:30;8.60;;;3.70;;
36403;SDS011;22437;55.646;37.518;2022-08-21T11:19:07;7.05;;;2.92;;
36403;SDS011;22437;55.646;37.518;2022-08-21T11:21:43;10.23;;;3.20;;
36403;SDS011;22437;55.646;37.518;2022-08-21T11:24:24;10.57;;;2.72;;
36403;SDS011;22437;55.646;37.518;2022-08-21T11:27:03;9.20;;;2.83;;
36403;SDS011;22437;55.646;37.518;2022-08-21T11:29:39;7.85;;;3.13;;
36403;SDS011;22437;55.646;37.518;2022-08-21T11:35:10;8.05;;;3.00;;
36403;SDS011;22437;55.646;37.518;2022-08-21T11:37:51;9.95;;;3.22;;
36403;SDS011;22437;55.646;37.518;2022-08-21T11:40:42;10.40;;;3.17;;
36403;SDS011;22437;55.646;37.518;2022-08-21T11:43:23;11.07;;;4.00;;
36403;SDS011;22437;55.646;37.518;2022-08-21T11:46:03;8.40;;;3.58;;
36403;SDS011;22437;55.646;37.518;2022-08-21T11:48:47;6.50;;;3.33;;
36403;SDS011;22437;55.646;37.518;2022-08-21T11:51:29;13.45;;;4.05;;
36403;SDS011;22437;55.646;37.518;2022-08-21T11:54:05;9.55;;;4.40;;
36403;SDS011;22437;55.646;37.518;2022-08-21T11:56:51;14.73;;;5.28;;
36403;SDS011;22437;55.646;37.518;2022-08-21T11:59:30;15.52;;;5.20;;
36403;SDS011;22437;55.646;37.518;2022-08-21T12:02:09;10.35;;;5.65;;
36403;SDS011;22437;55.646;37.518;2022-08-21T12:04:44;11.10;;;5.35;;
36403;SDS011;22437;55.646;37.518;2022-08-21T12:07:29;13.73;;;4.82;;
36403;SDS011;22437;55.646;37.518;2022-08-21T12:10:05;13.52;;;5.18;;
36403;SDS011;22437;55.646;37.518;2022-08-21T12:12:40;12.27;;;5.70;;
36403;SDS011;22437;55.646;37.518;2022-08-21T12:15:24;10.70;;;5.10;;
36403;SDS011;22437;55.646;37.518;2022-08-21T12:17:59;12.45;;;5.43;;
36403;SDS011;22437;55.646;37.518;2022-08-21T12:20:41;15.52;;;4.68;;
36403;SDS011;22437;55.646;37.518;2022-08-21T12:26:22;14.35;;;4.20;;
36403;SDS011;22437;55.646;37.518;2022-08-21T12:29:15;9.25;;;4.22;;
36403;SDS011;22437;55.646;37.518;2022-08-21T12:31:51;7.88;;;3.55;;
36403;SDS011;22437;55.646;37.518;2022-08-21T12:34:34;8.45;;;2.97;;
36403;SDS011;22437;55.646;37.518;2022-08-21T12:37:11;9.90;;;3.00;;
36403;SDS011;22437;55.646;37.518;2022-08-21T12:39:51;7.88;;;2.53;;
36403;SDS011;22437;55.646;37.518;2022-08-21T12:42:28;10.52;;;3.30;;
36403;SDS011;22437;55.646;37.518;2022-08-21T12:45:15;10.15;;;2.60;;
36403;SDS011;22437;55.646;37.518;2022-08-21T12:47:48;5.05;;;2.33;;
36403;SDS011;22437;55.646;37.518;2022-08-21T12:50:24;8.10;;;1.83;;
36403;SDS011;22437;55.646;37.518;2022-08-21T12:53:04;11.15;;;3.15;;
36403;SDS011;22437;55.646;37.518;2022-08-21T12:55:49;15.43;;;6.13;;
36403;SDS011;22437;55.646;37.518;2022-08-21T12:58:18;16.15;;;8.60;;
36403;SDS011;22437;55.646;37.518;2022-08-21T13:00:52;8.13;;;2.88;;
36403;SDS011;22437;55.646;37.518;2022-08-21T13:03:24;8.38;;;2.45;;
36403;SDS011;22437;55.646;37.518;2022-08-21T13:05:56;9.93;;;2.80;;
36403;SDS011;22437;55.646;37.518;2022-08-21T13:08:29;13.55;;;3.67;;
36403;SDS011;22437;55.646;37.518;2022-08-21T13:11:08;9.73;;;3.83;;
36403;SDS011;22437;55.646;37.518;2022-08-21T13:13:42;16.95;;;7.32;;
36403;SDS011;22437;55.646;37.518;2022-08-21T13:16:24;15.98;;;5.45;;
36403;SDS011;22437;55.646;37.518;2022-08-21T13:19:00;7.57;;;4.10;;
36403;SDS011;22437;55.646;37.518;2022-08-21T13:21:40;12.85;;;4.38;;
36403;SDS011;22437;55.646;37.518;2022-08-21T13:24:15;11.95;;;3.92;;
36403;SDS011;22437;55.646;37.518;2022-08-21T13:27:20;9.65;;;4.43;;
36403;SDS011;22437;55.646;37.518;2022-08-21T13:30:06;12.40;;;4.30;;
36403;SDS011;22437;55.646;37.518;2022-08-21T13:32:41;9.25;;;3.85;;
36403;SDS011;22437;55.646;37.518;2022-08-21T13:35:14;12.27;;;3.95;;
36403;SDS011;22437;55.646;37.518;2022-08-21T13:37:48;16.65;;;4.88;;
36403;SDS011;22437;55.646;37.518;2022-08-21T13:40:19;15.88;;;4.20;;
36403;SDS011;22437;55.646;37.518;2022-08-21T13:42:54;7.88;;;4.05;;
36403;SDS011;22437;55.646;37.518;2022-08-21T13:45:29;11.75;;;4.65;;
36403;SDS011;22437;55.646;37.518;2022-08-21T13:48:04;16.27;;;5.00;;
36403;SDS011;22437;55.646;37.518;2022-08-21T13:50:36;13.68;;;4.10;;
36403;SDS011;22437;55.646;37.518;2022-08-21T13:53:20;12.02;;;5.00;;
36403;SDS011;22437;55.646;37.518;2022-08-21T13:55:52;10.75;;;5.95;;
36403;SDS011;22437;55.646;37.518;2022-08-21T13:58:29;21.30;;;5.47;;
36403;SDS011;22437;55.646;37.518;2022-08-21T14:01:02;10.93;;;4.38;;
36403;SDS011;22437;55.646;37.518;2022-08-21T14:03:36;7.95;;;3.70;;
36403;SDS011;22437;55.646;37.518;2022-08-21T14:06:11;10.18;;;4.40;;
36403;SDS011;22437;55.646;37.518;2022-08-21T14:08:47;8.70;;;3.53;;
36403;SDS011;22437;55.646;37.518;2022-08-21T14:11:24;12.43;;;3.75;;
36403;SDS011;22437;55.646;37.518;2022-08-21T14:13:56;6.70;;;3.50;;
36403;SDS011;22437;55.646;37.518;2022-08-21T14:16:41;13.43;;;3.45;;
36403;SDS011;22437;55.646;37.518;2022-08-21T14:19:34;11.15;;;3.47;;
36403;SDS011;22437;55.646;37.518;2022-08-21T14:25:07;14.77;;;3.90;;
36403;SDS011;22437;55.646;37.518;2022-08-21T14:27:42;12.10;;;4.07;;
36403;SDS011;22437;55.646;37.518;2022-08-21T14:30:16;11.25;;;4.65;;
36403;SDS011;22437;55.646;37.518;2022-08-21T14:32:51;14.38;;;4.65;;
36403;SDS011;22437;55.646;37.518;2022-08-21T14:35:33;12.07;;;4.93;;
36403;SDS011;22437;55.646;37.518;2022-08-21T14:38:12;13.68;;;5.78;;
36403;SDS011;22437;55.646;37.518;2022-08-21T14:40:44;14.52;;;6.20;;
36403;SDS011;22437;55.646;37.518;2022-08-21T14:43:17;12.52;;;6.13;;
36403;SDS011;22437;55.646;37.518;2022-08-21T14:45:53;24.33;;;5.75;;
36403;SDS011;22437;55.646;37.518;2022-08-21T14:48:25;11.48;;;6.28;;
36403;SDS011;22437;55.646;37.518;2022-08-21T14:50:58;12.75;;;6.47;;
36403;SDS011;22437;55.646;37.518;2022-08-21T14:53:29;17.40;;;8.77;;
36403;SDS011;22437;55.646;37.518;2022-08-21T14:55:59;16.67;;;7.53;;
36403;SDS011;22437;55.646;37.518;2022-08-21T14:58:36;23.98;;;13.20;;
36403;SDS011;22437;55.646;37.518;2022-08-21T15:01:08;19.92;;;10.85;;
36403;SDS011;22437;55.646;37.518;2022-08-21T15:03:41;14.48;;;5.53;;
36403;SDS011;22437;55.646;37.518;2022-08-21T15:06:16;11.35;;;5.22;;
36403;SDS011;22437;55.646;37.518;2022-08-21T15:08:48;10.88;;;4.43;;
36403;SDS011;22437;55.646;37.518;2022-08-21T15:11:19;11.05;;;5.30;;
36403;SDS011;22437;55.646;37.518;2022-08-21T15:14:11;13.00;;;4.68;;
36403;SDS011;22437;55.646;37.518;2022-08-21T15:16:48;24.33;;;5.97;;
36403;SDS011;22437;55.646;37.518;2022-08-21T15:19:21;9.95;;;4.90;;
36403;SDS011;22437;55.646;37.518;2022-08-21T15:21:57;11.70;;;4.90;;